Time;durP1;ratioP1;P1;durP2;ratioP2;P2;SDS_P1;SDS_P2;PMS_P1;PMS_P2;Temp;Humidity;BMP_temperature;BMP_pressure;BME280_temperature;BME280_humidity;BME280_pressure;Samples;Min_cycle;Max_cycle;Signal;HPM_P1;HPM_P2
2022/09/29 00:00:14;;;;;;;2.30;1.20;;;8.80;99.90;;;;;;5032596;28;20045;-70
2022/09/29 00:02:41;;;;;;;2.72;1.38;;;8.80;99.90;;;;;;5024867;28;20053;-71
2022/09/29 00:05:10;;;;;;;1.67;1.33;;;8.80;99.90;;;;;;5029743;28;20064;-71
2022/09/29 00:07:37;;;;;;;1.33;1.23;;;8.80;99.90;;;;;;5030745;28;20135;-71
2022/09/29 00:10:05;;;;;;;1.52;1.42;;;8.80;99.90;;;;;;5032197;28;20123;-71
2022/09/29 00:12:32;;;;;;;2.08;1.75;;;8.80;99.90;;;;;;5030490;28;20099;-71
2022/09/29 00:14:59;;;;;;;2.72;1.77;;;8.80;99.90;;;;;;5030199;28;20053;-71
2022/09/29 00:17:26;;;;;;;4.32;1.63;;;8.80;99.90;;;;;;5030427;28;20045;-71
2022/09/29 00:19:53;;;;;;;1.67;1.58;;;8.70;99.90;;;;;;5030898;28;20037;-71
2022/09/29 00:22:22;;;;;;;1.60;1.50;;;8.80;99.90;;;;;;5029491;28;20049;-72
2022/09/29 00:24:49;;;;;;;2.63;1.70;;;8.70;99.90;;;;;;5029709;28;20049;-70
2022/09/29 00:27:17;;;;;;;2.00;1.80;;;8.80;99.90;;;;;;5031910;28;20520;-70
2022/09/29 00:29:44;;;;;;;2.38;1.52;;;8.80;99.90;;;;;;5032211;28;20144;-70
2022/09/29 00:32:11;;;;;;;1.58;1.48;;;8.80;99.90;;;;;;5044503;28;20124;-70
2022/09/29 00:34:38;;;;;;;1.90;1.75;;;8.80;99.90;;;;;;5029127;28;20049;-70
2022/09/29 00:37:05;;;;;;;1.73;1.63;;;8.70;99.90;;;;;;5031230;28;20596;-70
2022/09/29 00:39:34;;;;;;;1.88;1.63;;;8.70;99.90;;;;;;5028349;28;20038;-71
2022/09/29 00:42:01;;;;;;;1.70;1.60;;;8.70;99.90;;;;;;5029176;28;20064;-71
2022/09/29 00:45:04;;;;;;;1.67;1.50;;;8.80;99.90;;;;;;5030509;28;20136;-71
2022/09/29 00:47:34;;;;;;;1.70;1.58;;;8.80;99.90;;;;;;5012681;28;20064;-71
2022/09/29 00:50:06;;;;;;;2.38;1.30;;;8.80;99.90;;;;;;5022758;28;20041;-71
2022/09/29 00:52:37;;;;;;;5.00;2.30;;;8.80;99.90;;;;;;5029423;28;20060;-71
2022/09/29 00:55:10;;;;;;;2.97;1.60;;;8.80;99.90;;;;;;5029336;28;20118;-74
2022/09/29 00:57:41;;;;;;;2.63;1.90;;;8.80;99.90;;;;;;5031584;28;20057;-74
2022/09/29 01:00:12;;;;;;;3.95;1.50;;;8.80;99.90;;;;;;5027709;28;20469;-74
2022/09/29 01:02:44;;;;;;;3.38;1.63;;;8.70;99.90;;;;;;5029753;28;20050;-74
2022/09/29 01:05:15;;;;;;;2.90;2.08;;;8.70;99.90;;;;;;5031688;28;20444;-75
2022/09/29 01:07:44;;;;;;;2.75;1.80;;;8.70;99.90;;;;;;5043980;28;20059;-74
2022/09/29 01:10:15;;;;;;;1.60;1.50;;;8.70;99.90;;;;;;5023480;28;20136;-75
2022/09/29 01:12:45;;;;;;;2.20;1.50;;;8.70;99.90;;;;;;5029628;28;20051;-74
2022/09/29 01:15:13;;;;;;;3.97;1.83;;;8.70;99.90;;;;;;5016954;28;20071;-75
2022/09/29 01:17:41;;;;;;;3.60;1.40;;;8.70;99.90;;;;;;5028060;28;20049;-74
2022/09/29 01:20:14;;;;;;;2.13;1.60;;;8.70;99.90;;;;;;5028458;28;20448;-75
2022/09/29 01:23:16;;;;;;;3.03;1.98;;;8.80;99.90;;;;;;5029292;28;20045;-75
2022/09/29 01:26:08;;;;;;;1.80;1.70;;;8.80;99.90;;;;;;5017778;28;20571;-74
2022/09/29 01:29:06;;;;;;;2.95;1.90;;;8.70;99.90;;;;;;5027742;28;20041;-75
2022/09/29 01:31:41;;;;;;;3.70;1.83;;;8.70;99.90;;;;;;5008086;28;20049;-74
2022/09/29 01:34:18;;;;;;;2.17;1.48;;;8.70;99.90;;;;;;5018850;28;20049;-74
2022/09/29 01:36:54;;;;;;;2.15;1.92;;;8.70;99.90;;;;;;5026804;28;20072;-74
2022/09/29 01:39:30;;;;;;;1.98;1.88;;;8.70;99.90;;;;;;5029229;28;20056;-74
2022/09/29 01:42:02;;;;;;;3.08;1.70;;;8.70;99.90;;;;;;5030353;28;20063;-74
2022/09/29 01:44:32;;;;;;;2.22;1.60;;;8.70;99.90;;;;;;5028926;28;20104;-74
2022/09/29 01:47:08;;;;;;;2.20;1.67;;;8.70;99.90;;;;;;5026627;28;20075;-74
2022/09/29 01:49:40;;;;;;;3.50;1.58;;;8.70;99.90;;;;;;5016994;28;20107;-74
2022/09/29 01:52:09;;;;;;;3.72;1.92;;;8.70;99.90;;;;;;5030751;28;20079;-75
2022/09/29 01:54:43;;;;;;;2.55;1.50;;;8.70;99.90;;;;;;5026831;28;20044;-75
2022/09/29 01:57:15;;;;;;;1.70;1.60;;;8.60;99.90;;;;;;5026026;28;20563;-74
2022/09/29 01:59:47;;;;;;;2.13;2.00;;;8.60;99.90;;;;;;5038197;28;20068;-73
2022/09/29 02:02:20;;;;;;;2.65;1.85;;;8.60;99.90;;;;;;5031027;28;20628;-74
2022/09/29 02:04:53;;;;;;;1.88;1.77;;;8.60;99.90;;;;;;5026961;28;20058;-75
2022/09/29 02:07:22;;;;;;;;;;;8.60;99.90;;;;;;5029658;28;20049;-74
2022/09/29 02:09:53;;;;;;;1.85;1.70;;;8.60;99.90;;;;;;5030079;28;20347;-74
2022/09/29 02:12:25;;;;;;;2.78;1.80;;;8.60;99.90;;;;;;5027923;28;20046;-73
2022/09/29 02:14:54;;;;;;;2.13;1.85;;;8.60;99.90;;;;;;5028943;28;20042;-74
2022/09/29 02:17:27;;;;;;;2.72;1.80;;;8.60;99.90;;;;;;5029910;28;20046;-73
2022/09/29 02:19:54;;;;;;;;;;;8.60;99.90;;;;;;5032356;28;20486;-73
2022/09/29 02:22:21;;;;;;;1.90;1.73;;;8.60;99.90;;;;;;5030583;28;19955;-73
2022/09/29 02:24:51;;;;;;;2.25;2.10;;;8.60;99.90;;;;;;5032573;28;20421;-75
2022/09/29 02:27:19;;;;;;;1.50;1.40;;;8.60;99.90;;;;;;5033349;28;20046;-75
2022/09/29 02:29:46;;;;;;;3.17;1.70;;;8.60;99.90;;;;;;5034368;28;20063;-74
2022/09/29 02:32:14;;;;;;;1.73;1.63;;;8.60;99.90;;;;;;5031252;28;20084;-74
2022/09/29 02:34:45;;;;;;;4.13;1.80;;;8.60;99.90;;;;;;5031770;28;20049;-75
2022/09/29 02:37:29;;;;;;;8.45;1.67;;;8.60;99.90;;;;;;5033300;28;20045;-74
2022/09/29 02:40:09;;;;;;;1.90;1.70;;;8.60;99.90;;;;;;5030323;28;20466;-74
2022/09/29 02:42:45;;;;;;;1.63;1.52;;;8.60;99.90;;;;;;5033448;28;20056;-74
2022/09/29 02:45:30;;;;;;;7.07;1.77;;;8.60;99.90;;;;;;5030811;28;20514;-74
2022/09/29 02:48:15;;;;;;;1.80;1.63;;;8.60;99.90;;;;;;5018395;28;20049;-74
2022/09/29 02:50:52;;;;;;;2.08;1.52;;;8.60;99.90;;;;;;5000306;28;20148;-74
2022/09/29 02:53:34;;;;;;;1.92;1.83;;;8.60;99.90;;;;;;5025980;28;20084;-73
2022/09/29 02:56:08;;;;;;;1.92;1.70;;;8.60;99.90;;;;;;5030775;28;20053;-74
2022/09/29 02:58:42;;;;;;;1.67;1.58;;;8.60;99.90;;;;;;5030365;28;20044;-74
2022/09/29 03:01:10;;;;;;;2.05;1.95;;;8.60;99.90;;;;;;5028866;28;20046;-74
2022/09/29 03:03:37;;;;;;;1.70;1.60;;;8.60;99.90;;;;;;5031444;28;20057;-74
2022/09/29 03:06:06;;;;;;;2.60;1.50;;;8.60;99.90;;;;;;5032821;28;20063;-74
2022/09/29 03:08:33;;;;;;;2.22;1.52;;;8.60;99.90;;;;;;5022926;28;20415;-74
2022/09/29 03:11:00;;;;;;;2.25;1.63;;;8.60;99.90;;;;;;5031789;28;20081;-74
2022/09/29 03:13:27;;;;;;;2.33;1.88;;;8.60;99.90;;;;;;5031728;28;20136;-74
2022/09/29 03:15:55;;;;;;;3.03;1.40;;;8.60;99.90;;;;;;5047193;28;20048;-75
2022/09/29 03:18:23;;;;;;;3.45;1.42;;;8.60;99.90;;;;;;5029179;28;20119;-75
2022/09/29 03:20:50;;;;;;;2.13;1.50;;;8.60;99.90;;;;;;5031564;28;20132;-73
2022/09/29 03:23:18;;;;;;;3.25;1.45;;;8.60;99.90;;;;;;5047195;28;20088;-75
2022/09/29 03:25:46;;;;;;;2.95;1.70;;;8.60;99.90;;;;;;5032148;28;20041;-75
2022/09/29 03:28:15;;;;;;;2.00;1.73;;;8.60;99.90;;;;;;5030287;28;20057;-76
2022/09/29 03:30:42;;;;;;;3.35;2.05;;;8.60;99.90;;;;;;5030237;28;20068;-75
2022/09/29 03:33:09;;;;;;;3.05;1.38;;;8.60;99.90;;;;;;5032127;28;20053;-75
2022/09/29 03:35:36;;;;;;;4.35;2.78;;;8.60;99.90;;;;;;5045244;28;20709;-75
2022/09/29 03:38:03;;;;;;;4.47;2.38;;;8.60;99.90;;;;;;5031853;28;20513;-75
2022/09/29 03:40:32;;;;;;;2.10;1.58;;;8.60;99.90;;;;;;5032819;28;20132;-75
2022/09/29 03:42:59;;;;;;;3.08;2.13;;;8.60;99.90;;;;;;5032070;28;20441;-75
2022/09/29 03:45:26;;;;;;;1.52;1.00;;;8.60;99.90;;;;;;5029196;28;20115;-74
2022/09/29 03:47:53;;;;;;;3.40;1.60;;;8.60;99.90;;;;;;5030481;28;20052;-75
2022/09/29 03:50:20;;;;;;;2.20;1.42;;;8.60;99.90;;;;;;5033110;28;20446;-76
2022/09/29 03:52:47;;;;;;;4.30;1.48;;;8.60;99.90;;;;;;5031509;28;20060;-75
2022/09/29 03:55:15;;;;;;;2.95;1.50;;;8.60;99.90;;;;;;5028624;28;20128;-76
2022/09/29 03:57:44;;;;;;;2.30;1.63;;;8.60;99.90;;;;;;5030390;28;20045;-75
2022/09/29 04:00:12;;;;;;;2.15;1.50;;;8.50;99.90;;;;;;5031106;28;20565;-76
2022/09/29 04:02:40;;;;;;;2.45;1.25;;;8.60;99.90;;;;;;5030879;28;20569;-76
2022/09/29 04:05:07;;;;;;;2.45;1.17;;;8.60;99.90;;;;;;5030136;28;20453;-77
2022/09/29 04:07:34;;;;;;;1.77;1.60;;;8.50;99.90;;;;;;5033465;28;20048;-74
2022/09/29 04:10:02;;;;;;;2.80;1.50;;;8.50;99.90;;;;;;5024858;28;20053;-75
2022/09/29 04:12:30;;;;;;;2.33;2.03;;;8.50;99.90;;;;;;5027782;28;20608;-74
2022/09/29 04:14:59;;;;;;;4.93;1.33;;;8.60;99.90;;;;;;5028396;28;20080;-72
2022/09/29 04:17:26;;;;;;;2.63;1.33;;;8.60;99.90;;;;;;5030241;28;20513;-75
2022/09/29 04:19:53;;;;;;;3.45;1.27;;;8.50;99.90;;;;;;5031306;28;20045;-76
2022/09/29 04:22:20;;;;;;;1.50;1.40;;;8.50;99.90;;;;;;5029333;28;20041;-75
2022/09/29 04:24:48;;;;;;;3.20;2.55;;;8.50;99.90;;;;;;5026875;28;20578;-76
2022/09/29 04:27:15;;;;;;;4.50;1.92;;;8.40;99.90;;;;;;5028472;28;20045;-76
2022/09/29 04:29:42;;;;;;;6.07;2.22;;;8.50;99.90;;;;;;5032497;28;20099;-76
2022/09/29 04:32:11;;;;;;;4.75;2.40;;;8.50;99.90;;;;;;5029221;28;20045;-76
2022/09/29 04:34:39;;;;;;;3.95;2.03;;;8.50;99.90;;;;;;5021059;28;20054;-76
2022/09/29 04:37:10;;;;;;;8.57;2.40;;;8.50;99.90;;;;;;5011117;28;20404;-75
2022/09/29 04:39:37;;;;;;;5.88;2.80;;;8.50;99.90;;;;;;5012751;28;20104;-75
2022/09/29 04:42:04;;;;;;;5.90;1.50;;;8.50;99.90;;;;;;5035412;28;20212;-76
2022/09/29 05:33:05;;;;;;;4.07;2.13;;;8.60;99.90;;;;;;4932567;29;20051;-77
2022/09/29 05:35:32;;;;;;;3.03;2.35;;;8.60;99.90;;;;;;4932816;29;20460;-79
2022/09/29 05:38:00;;;;;;;6.13;2.95;;;8.60;99.90;;;;;;4932788;29;20083;-77
2022/09/29 05:40:27;;;;;;;8.13;2.17;;;8.60;99.90;;;;;;4934054;29;20196;-76
2022/09/29 05:42:54;;;;;;;2.40;2.17;;;8.60;99.90;;;;;;4932728;29;20138;-76
2022/09/29 05:45:21;;;;;;;3.40;2.20;;;8.70;99.90;;;;;;4933956;29;20530;-77
2022/09/29 05:47:48;;;;;;;4.57;2.20;;;8.70;99.90;;;;;;4933711;29;20091;-77
2022/09/29 05:50:17;;;;;;;2.47;2.20;;;8.70;99.90;;;;;;4945425;28;20055;-76
2022/09/29 05:52:48;;;;;;;3.67;1.98;;;8.70;99.90;;;;;;4940501;28;20047;-75
2022/09/29 05:55:16;;;;;;;3.45;1.90;;;8.70;99.90;;;;;;4944102;28;20051;-77
2022/09/29 05:57:43;;;;;;;4.50;3.17;;;8.70;99.90;;;;;;4948091;29;20079;-76
2022/09/29 06:00:10;;;;;;;9.75;2.78;;;8.80;99.90;;;;;;4942974;29;20050;-77
2022/09/29 06:02:40;;;;;;;5.80;2.50;;;8.80;99.90;;;;;;4951449;29;20138;-76
2022/09/29 06:05:08;;;;;;;2.78;2.00;;;8.80;99.90;;;;;;4952716;28;20059;-77
2022/09/29 06:07:36;;;;;;;3.30;2.67;;;8.90;99.90;;;;;;4933200;28;20066;-76
2022/09/29 06:10:05;;;;;;;2.65;1.80;;;8.90;99.90;;;;;;4914950;29;20052;-77
2022/09/29 06:12:35;;;;;;;3.67;2.08;;;8.90;99.90;;;;;;4926071;29;20052;-77
2022/09/29 06:15:03;;;;;;;6.57;1.98;;;8.90;99.90;;;;;;4906897;29;20527;-70
2022/09/29 06:17:31;;;;;;;2.50;2.30;;;8.90;99.90;;;;;;4922817;29;20083;-71
2022/09/29 06:19:58;;;;;;;4.05;2.40;;;8.90;99.90;;;;;;4925022;29;20052;-70
2022/09/29 06:22:26;;;;;;;3.90;2.10;;;8.90;99.90;;;;;;4923887;29;20048;-70
2022/09/29 06:24:55;;;;;;;2.05;1.90;;;8.80;99.90;;;;;;4926449;29;20114;-70
2022/09/29 06:27:22;;;;;;;2.17;1.92;;;8.90;99.90;;;;;;4927729;29;20131;-70
2022/09/29 06:29:49;;;;;;;3.17;1.90;;;8.90;99.90;;;;;;4933106;29;20060;-70
2022/09/29 06:32:16;;;;;;;4.03;2.22;;;8.90;99.90;;;;;;4924868;29;20070;-71
2022/09/29 06:37:38;;;;;;;3.42;2.80;;;8.90;99.90;;;;;;4928544;29;20054;-72
2022/09/29 06:40:08;;;;;;;2.50;2.25;;;8.90;99.90;;;;;;4920674;28;20580;-71
2022/09/29 06:42:35;;;;;;;2.70;1.90;;;8.90;99.90;;;;;;4914061;29;20457;-71
2022/09/29 06:45:03;;;;;;;1.70;1.60;;;8.90;99.90;;;;;;4936044;29;20052;-71
2022/09/29 06:47:31;;;;;;;3.30;3.05;;;9.00;99.90;;;;;;4923952;29;20051;-71
2022/09/29 06:50:00;;;;;;;4.10;3.60;;;9.00;99.90;;;;;;4923126;29;20048;-72
2022/09/29 06:52:28;;;;;;;1.92;1.83;;;9.10;99.90;;;;;;4922036;29;20499;-72
2022/09/29 06:54:56;;;;;;;3.13;2.15;;;9.20;99.90;;;;;;4921499;29;20060;-72
2022/09/29 06:57:25;;;;;;;1.58;1.40;;;9.20;99.90;;;;;;4920325;29;20056;-71
2022/09/29 06:59:53;;;;;;;2.50;1.70;;;9.30;99.90;;;;;;4921919;29;20051;-71
2022/09/29 07:02:20;;;;;;;1.90;1.30;;;9.30;99.90;;;;;;4921838;29;20103;-70
2022/09/29 07:04:47;;;;;;;3.70;1.80;;;9.40;99.90;;;;;;4921853;29;20048;-72
2022/09/29 07:07:14;;;;;;;3.90;1.67;;;9.40;99.90;;;;;;4922776;29;20119;-71
2022/09/29 07:09:42;;;;;;;1.60;1.50;;;9.40;99.90;;;;;;4926105;29;20059;-71
2022/09/29 07:12:10;;;;;;;1.50;1.33;;;9.40;99.90;;;;;;4927727;29;20054;-71
2022/09/29 07:14:39;;;;;;;1.70;1.50;;;9.40;99.90;;;;;;4926723;29;20051;-71
2022/09/29 07:17:08;;;;;;;1.75;1.65;;;9.40;99.90;;;;;;4927378;29;20126;-71
2022/09/29 07:19:35;;;;;;;3.15;1.52;;;9.40;99.90;;;;;;4925342;29;20055;-72
2022/09/29 07:22:03;;;;;;;1.85;1.75;;;9.50;99.90;;;;;;4923231;29;20052;-70
2022/09/29 07:24:30;;;;;;;2.90;1.80;;;9.50;99.90;;;;;;4925166;29;20056;-71
2022/09/29 07:26:57;;;;;;;2.60;1.63;;;9.60;99.90;;;;;;4924027;29;20056;-71
2022/09/29 07:29:24;;;;;;;3.33;1.30;;;9.50;99.90;;;;;;4927334;29;20051;-71
2022/09/29 07:31:54;;;;;;;2.42;2.15;;;9.60;99.90;;;;;;4921282;29;20630;-71
2022/09/29 07:34:21;;;;;;;3.92;2.10;;;9.60;99.90;;;;;;4918783;29;20055;-72
2022/09/29 07:36:49;;;;;;;1.55;1.35;;;9.70;99.90;;;;;;4926353;29;20043;-71
2022/09/29 07:39:16;;;;;;;2.65;1.30;;;9.70;99.90;;;;;;4921922;29;20587;-71
2022/09/29 07:41:43;;;;;;;4.30;1.35;;;9.70;99.90;;;;;;4923019;29;20060;-70
2022/09/29 07:44:10;;;;;;;1.88;1.38;;;9.70;99.90;;;;;;4934230;29;20054;-71
2022/09/29 07:46:37;;;;;;;1.40;1.30;;;9.70;99.90;;;;;;4935104;29;20162;-71
2022/09/29 07:49:06;;;;;;;1.83;1.70;;;9.60;99.90;;;;;;4932730;29;20131;-71
2022/09/29 07:51:33;;;;;;;2.22;1.52;;;9.50;99.90;;;;;;4920728;29;20056;-71
2022/09/29 07:54:02;;;;;;;1.50;1.40;;;9.50;99.90;;;;;;4921444;29;20081;-71
2022/09/29 07:56:31;;;;;;;1.52;1.33;;;9.40;99.90;;;;;;4922385;29;20191;-72
2022/09/29 07:58:59;;;;;;;2.20;1.52;;;9.40;99.90;;;;;;4923601;29;20075;-71
2022/09/29 08:01:26;;;;;;;1.58;1.45;;;9.50;99.90;;;;;;4925245;29;20067;-70
2022/09/29 08:03:55;;;;;;;24.38;11.70;;;9.50;99.90;;;;;;4897420;29;20044;-71
2022/09/29 08:06:25;;;;;;;2.65;1.80;;;9.60;99.90;;;;;;4928887;29;20122;-70
2022/09/29 08:08:53;;;;;;;2.05;1.52;;;9.60;99.90;;;;;;4923897;29;20453;-70
2022/09/29 08:11:21;;;;;;;2.65;1.63;;;9.60;99.90;;;;;;4925073;29;20055;-70
2022/09/29 08:13:50;;;;;;;7.35;1.67;;;9.70;99.90;;;;;;4928302;29;20058;-69
2022/09/29 08:16:18;;;;;;;3.25;1.60;;;9.80;99.90;;;;;;4920873;29;20537;-72
2022/09/29 08:18:45;;;;;;;6.78;2.80;;;9.90;99.90;;;;;;4924343;29;20060;-77
2022/09/29 08:21:13;;;;;;;1.77;1.65;;;9.90;99.90;;;;;;4921854;29;20465;-75
2022/09/29 08:23:43;;;;;;;2.13;1.90;;;10.00;99.90;;;;;;4925343;29;20039;-75
2022/09/29 08:26:14;;;;;;;1.38;1.27;;;10.10;99.90;;;;;;4923385;29;20142;-76
2022/09/29 08:28:41;;;;;;;1.38;1.25;;;10.10;99.90;;;;;;4927474;29;20827;-75
2022/09/29 08:31:12;;;;;;;1.40;1.30;;;10.10;99.90;;;;;;4924055;29;20052;-75
2022/09/29 08:33:39;;;;;;;2.08;1.58;;;10.10;99.90;;;;;;4927426;29;20062;-76
2022/09/29 08:36:13;;;;;;;2.05;1.40;;;10.20;99.90;;;;;;4924592;29;20050;-77
2022/09/29 08:38:43;;;;;;;4.40;1.88;;;10.20;99.90;;;;;;4928492;29;20051;-79
2022/09/29 08:41:26;;;;;;;2.08;1.50;;;10.10;99.90;;;;;;4916654;29;20425;-76
2022/09/29 08:43:57;;;;;;;3.42;1.40;;;10.10;99.90;;;;;;4932477;29;20052;-75
2022/09/29 08:46:29;;;;;;;2.97;1.25;;;10.10;99.90;;;;;;4937572;29;20047;-75
2022/09/29 08:48:59;;;;;;;1.40;1.30;;;10.00;99.90;;;;;;4931350;29;20056;-78
2022/09/29 08:51:32;;;;;;;3.92;1.60;;;9.90;99.90;;;;;;4917426;29;20423;-69
2022/09/29 08:54:09;;;;;;;2.00;1.50;;;10.00;99.90;;;;;;4928525;29;20079;-70
2022/09/29 08:56:37;;;;;;;1.98;1.88;;;9.90;99.90;;;;;;4926197;29;20138;-70
2022/09/29 08:59:04;;;;;;;1.92;1.30;;;9.90;99.90;;;;;;4912513;29;20080;-71
2022/09/29 09:01:42;;;;;;;2.78;2.15;;;9.90;99.90;;;;;;4929585;29;20064;-69
2022/09/29 09:04:32;;;;;;;1.38;1.27;;;9.90;99.90;;;;;;4927089;29;20048;-70
2022/09/29 09:07:10;;;;;;;2.65;1.80;;;9.80;99.90;;;;;;4931460;29;20439;-70
2022/09/29 09:09:56;;;;;;;3.70;1.73;;;9.70;99.90;;;;;;4921222;29;20074;-69
2022/09/29 09:12:56;;;;;;;1.42;1.15;;;9.70;99.90;;;;;;4931741;29;20052;-69
2022/09/29 09:15:48;;;;;;;1.85;1.70;;;9.70;99.90;;;;;;4913538;29;20055;-70
2022/09/29 09:18:30;;;;;;;1.77;1.67;;;9.70;99.90;;;;;;4930226;29;20063;-71
2022/09/29 09:21:07;;;;;;;2.50;1.83;;;9.80;99.90;;;;;;4921005;29;20059;-70
2022/09/29 09:23:49;;;;;;;2.92;1.60;;;9.80;99.90;;;;;;4925172;29;20048;-71
2022/09/29 09:26:19;;;;;;;2.67;1.77;;;9.90;99.90;;;;;;4918592;29;20096;-70
2022/09/29 09:28:53;;;;;;;1.77;1.67;;;9.90;99.90;;;;;;4923239;29;20434;-69
2022/09/29 09:31:26;;;;;;;1.98;1.55;;;9.90;99.90;;;;;;4923235;29;20141;-69
2022/09/29 09:34:00;;;;;;;1.90;1.70;;;9.80;99.90;;;;;;4922407;29;20056;-69
2022/09/29 09:36:34;;;;;;;2.90;1.60;;;9.80;99.90;;;;;;4923029;29;20051;-70
2022/09/29 09:39:05;;;;;;;2.08;1.63;;;9.80;99.90;;;;;;4928070;29;20052;-71
2022/09/29 09:41:36;;;;;;;2.20;1.60;;;9.90;99.90;;;;;;4920314;29;20567;-70
2022/09/29 09:44:07;;;;;;;3.72;2.22;;;9.80;99.90;;;;;;4921423;29;20549;-70
2022/09/29 09:46:40;;;;;;;3.25;1.95;;;9.80;99.90;;;;;;4921382;29;20095;-70
2022/09/29 09:49:16;;;;;;;1.90;1.33;;;9.80;99.90;;;;;;4926607;29;20052;-70
2022/09/29 09:51:53;;;;;;;2.35;1.88;;;9.80;99.90;;;;;;4925171;29;20051;-69
2022/09/29 09:54:28;;;;;;;2.50;1.60;;;9.90;99.90;;;;;;4920588;29;20056;-70
2022/09/29 09:57:43;;;;;;;3.20;1.65;;;10.00;99.90;;;;;;4923883;29;20098;-70
2022/09/29 10:00:13;;;;;;;3.03;2.00;;;10.00;99.90;;;;;;4924279;29;20147;-69
2022/09/29 10:02:46;;;;;;;1.80;1.70;;;10.00;99.90;;;;;;4919807;29;20048;-70
2022/09/29 10:05:15;;;;;;;;;;;10.00;99.90;;;;;;4928969;29;20071;-70
2022/09/29 10:07:42;;;;;;;2.03;1.92;;;10.10;99.90;;;;;;4930309;29;19941;-70
2022/09/29 10:10:17;;;;;;;4.57;1.83;;;10.00;99.90;;;;;;4921973;29;20478;-71
2022/09/29 10:12:46;;;;;;;2.78;1.90;;;10.00;99.90;;;;;;4917984;29;20147;-69
2022/09/29 10:15:20;;;;;;;2.25;2.05;;;10.10;99.90;;;;;;4931670;29;20051;-70
2022/09/29 10:17:58;;;;;;;4.68;2.38;;;10.10;99.90;;;;;;4920410;29;20472;-73
2022/09/29 10:20:33;;;;;;;2.40;2.17;;;10.10;99.90;;;;;;4926076;29;20059;-72
2022/09/29 10:23:23;;;;;;;2.00;1.90;;;10.10;99.90;;;;;;4920693;29;20040;-72
2022/09/29 10:25:58;;;;;;;2.90;2.10;;;10.20;99.90;;;;;;4923556;29;20584;-73
2022/09/29 10:28:36;;;;;;;3.45;2.30;;;10.10;99.90;;;;;;4924357;29;20143;-72
2022/09/29 10:31:14;;;;;;;4.95;2.40;;;10.00;99.90;;;;;;4922903;29;20166;-71
2022/09/29 10:33:49;;;;;;;4.57;2.40;;;10.10;99.90;;;;;;4922097;29;20147;-71
2022/09/29 10:36:19;;;;;;;3.50;2.72;;;10.10;99.90;;;;;;4918969;29;20043;-72
2022/09/29 10:38:47;;;;;;;2.08;1.90;;;10.10;99.90;;;;;;4924720;29;20142;-70
2022/09/29 10:41:15;;;;;;;6.90;1.85;;;10.10;99.90;;;;;;4925459;29;20044;-70
2022/09/29 10:43:44;;;;;;;3.90;1.83;;;10.10;99.90;;;;;;4927127;29;20134;-70
2022/09/29 10:46:36;;;;;;;2.05;1.95;;;10.20;99.90;;;;;;4909963;29;20060;-77
2022/09/29 10:49:10;;;;;;;5.65;2.50;;;10.30;99.90;;;;;;4924672;29;20563;-77
2022/09/29 10:51:39;;;;;;;3.22;2.55;;;10.30;99.90;;;;;;4924010;29;20048;-78
2022/09/29 10:54:08;;;;;;;2.92;2.20;;;10.30;99.90;;;;;;4925217;29;20099;-77
2022/09/29 10:56:35;;;;;;;3.65;2.10;;;10.40;99.90;;;;;;4923203;29;20056;-80
2022/09/29 10:59:04;;;;;;;4.63;2.50;;;10.50;99.90;;;;;;4921055;29;20465;-76
2022/09/29 11:01:37;;;;;;;3.75;2.67;;;10.50;99.90;;;;;;4925338;29;20048;-73
2022/09/29 11:04:15;;;;;;;3.85;3.00;;;10.60;99.90;;;;;;4925471;29;20048;-72
2022/09/29 11:06:48;;;;;;;2.97;2.63;;;10.60;99.90;;;;;;4926490;29;20467;-74
2022/09/29 11:09:26;;;;;;;;;;;10.70;99.90;;;;;;4924587;29;20058;-73
2022/09/29 11:12:01;;;;;;;3.42;2.58;;;10.70;99.90;;;;;;4919847;29;19926;-73
2022/09/29 11:14:41;;;;;;;6.82;3.00;;;10.60;99.90;;;;;;4924590;29;20056;-74
2022/09/29 11:17:24;;;;;;;4.57;2.35;;;10.60;99.90;;;;;;4931345;29;20044;-74
2022/09/29 11:19:54;;;;;;;6.80;2.35;;;10.50;99.90;;;;;;4924123;29;20056;-80
2022/09/29 11:22:56;;;;;;;2.55;2.35;;;10.40;99.90;;;;;;4919043;29;20078;-73
2022/09/29 11:25:45;;;;;;;2.60;1.95;;;10.40;99.90;;;;;;4864030;29;20065;-79
2022/09/29 11:28:34;;;;;;;3.35;2.15;;;10.30;99.90;;;;;;4938471;29;20055;-80
2022/09/29 11:31:15;;;;;;;3.58;2.10;;;10.30;99.90;;;;;;4924661;29;20043;-81
2022/09/29 11:33:52;;;;;;;2.60;2.30;;;10.30;99.90;;;;;;4931219;28;20111;-78
2022/09/29 11:36:31;;;;;;;2.58;2.38;;;10.30;99.90;;;;;;4930716;29;20056;-79
2022/09/29 11:39:25;;;;;;;2.97;2.30;;;10.20;99.90;;;;;;4914469;29;20615;-77
2022/09/29 11:42:18;;;;;;;2.42;2.22;;;10.30;99.90;;;;;;4923765;29;20646;-72
2022/09/29 11:45:00;;;;;;;2.40;1.92;;;10.20;99.90;;;;;;4924039;29;20056;-72
2022/09/29 11:48:23;;;;;;;3.05;2.38;;;10.20;99.90;;;;;;4925087;29;20059;-72
2022/09/29 11:51:00;;;;;;;5.22;2.67;;;10.20;99.90;;;;;;4923251;29;20048;-72
2022/09/29 11:53:50;;;;;;;4.18;2.45;;;10.20;99.90;;;;;;4927758;29;20055;-73
2022/09/29 11:56:27;;;;;;;4.70;2.85;;;10.30;99.90;;;;;;4931272;29;20508;-73
2022/09/29 11:59:15;;;;;;;6.38;3.47;;;10.40;99.90;;;;;;4921294;29;20412;-75
2022/09/29 12:01:57;;;;;;;2.67;2.42;;;10.50;99.90;;;;;;4925538;29;20063;-80
2022/09/29 12:04:35;;;;;;;2.42;2.22;;;10.70;99.90;;;;;;4924666;29;20065;-71
2022/09/29 12:07:17;;;;;;;3.17;2.00;;;11.00;99.90;;;;;;4921529;29;20130;-72
2022/09/29 12:10:32;;;;;;;4.13;2.17;;;11.20;99.90;;;;;;4927639;29;20055;-78
2022/09/29 12:13:12;;;;;;;2.20;2.00;;;11.30;99.90;;;;;;4911820;29;20063;-78
2022/09/29 12:15:52;;;;;;;2.67;1.67;;;11.40;99.90;;;;;;4926422;29;20059;-76
2022/09/29 12:18:25;;;;;;;2.00;1.80;;;11.50;99.90;;;;;;4925624;29;20089;-80
2022/09/29 12:20:54;;;;;;;4.07;3.55;;;11.60;99.90;;;;;;4923940;29;20086;-78
2022/09/29 12:23:26;;;;;;;3.17;2.00;;;11.60;99.90;;;;;;4928135;29;20203;-76
2022/09/29 12:25:59;;;;;;;1.80;1.70;;;11.70;99.90;;;;;;4918676;29;20059;-76
2022/09/29 12:28:35;;;;;;;1.70;1.60;;;11.70;99.90;;;;;;4930072;29;20532;-77
2022/09/29 12:31:09;;;;;;;2.78;1.83;;;11.80;99.90;;;;;;4922782;29;20063;-78
2022/09/29 12:33:40;;;;;;;2.35;2.15;;;11.80;99.90;;;;;;4927493;29;20871;-75
2022/09/29 12:36:45;;;;;;;2.28;2.17;;;11.80;99.90;;;;;;4924005;29;20063;-75
2022/09/29 12:39:26;;;;;;;1.90;1.80;;;11.80;99.90;;;;;;4932276;29;20071;-71
2022/09/29 12:42:02;;;;;;;3.33;1.73;;;12.00;99.90;;;;;;4926999;29;20058;-72
2022/09/29 12:44:37;;;;;;;4.47;2.33;;;12.10;99.90;;;;;;4908488;29;20048;-70
2022/09/29 12:47:13;;;;;;;3.80;2.80;;;12.10;99.90;;;;;;4921718;29;20412;-71
2022/09/29 12:49:55;;;;;;;2.83;2.63;;;12.10;99.90;;;;;;4923238;29;20493;-71
2022/09/29 12:52:29;;;;;;;2.92;2.60;;;12.10;99.90;;;;;;4927539;29;20107;-72
2022/09/29 12:55:02;;;;;;;2.97;2.67;;;12.00;99.90;;;;;;4922838;29;20110;-72
2022/09/29 12:57:34;;;;;;;3.70;3.17;;;11.90;99.90;;;;;;4921937;29;20058;-72
2022/09/29 13:00:05;;;;;;;3.13;2.67;;;12.00;99.90;;;;;;4922566;29;20587;-72
2022/09/29 13:03:00;;;;;;;3.85;2.35;;;12.10;99.90;;;;;;4927334;29;20083;-72
2022/09/29 13:05:57;;;;;;;3.67;2.17;;;12.30;99.90;;;;;;4902571;29;20059;-71
2022/09/29 13:08:41;;;;;;;4.40;2.80;;;12.20;99.90;;;;;;4918633;29;20106;-71
2022/09/29 13:11:22;;;;;;;2.80;1.95;;;12.10;99.90;;;;;;4926977;29;20055;-72
2022/09/29 13:14:03;;;;;;;4.15;2.50;;;11.90;99.90;;;;;;4922918;29;20130;-71
2022/09/29 13:16:46;;;;;;;2.58;2.38;;;11.80;99.90;;;;;;4924197;29;20066;-72
2022/09/29 13:19:43;;;;;;;3.80;2.85;;;11.70;99.90;;;;;;4924695;29;20126;-73
2022/09/29 13:22:27;;;;;;;3.95;3.25;;;11.60;99.90;;;;;;4930464;29;20538;-72
2022/09/29 13:25:03;;;;;;;4.47;3.17;;;11.50;99.90;;;;;;4924255;29;20127;-71
2022/09/29 13:27:36;;;;;;;4.07;3.78;;;11.30;99.90;;;;;;4918491;29;20056;-73
2022/09/29 13:30:13;;;;;;;3.45;3.20;;;11.30;99.90;;;;;;4923075;29;20376;-73
2022/09/29 13:32:43;;;;;;;5.72;3.58;;;11.20;99.90;;;;;;4922479;29;20055;-72
2022/09/29 13:35:16;;;;;;;6.13;3.30;;;11.20;99.90;;;;;;4923640;29;20115;-75
2022/09/29 13:37:50;;;;;;;9.77;4.03;;;11.20;99.90;;;;;;4879864;28;20064;-77
2022/09/29 13:40:21;;;;;;;8.18;3.60;;;11.20;99.90;;;;;;4939429;29;20469;-79
2022/09/29 13:42:54;;;;;;;4.00;3.60;;;11.20;99.90;;;;;;4926202;29;20048;-79
2022/09/29 13:45:50;;;;;;;7.80;3.40;;;11.10;99.90;;;;;;4916277;29;20512;-80
2022/09/29 13:48:54;;;;;;;8.45;3.03;;;11.30;99.90;;;;;;4904387;29;20365;-71
2022/09/29 13:51:51;;;;;;;7.13;3.25;;;11.40;99.90;;;;;;4916756;29;20071;-77
2022/09/29 13:54:27;;;;;;;4.53;3.13;;;11.40;99.90;;;;;;4922619;29;20063;-77
2022/09/29 13:57:20;;;;;;;4.00;2.40;;;11.50;99.90;;;;;;4927413;29;20051;-78
2022/09/29 14:00:05;;;;;;;2.83;2.42;;;11.50;99.90;;;;;;4925578;29;20043;-77
2022/09/29 14:02:40;;;;;;;4.20;3.10;;;11.50;99.90;;;;;;4927009;29;20113;-72
2022/09/29 14:05:37;;;;;;;2.60;2.40;;;11.50;99.90;;;;;;4919365;29;20067;-71
2022/09/29 14:08:16;;;;;;;2.40;2.20;;;11.40;99.90;;;;;;4927806;29;20631;-69
2022/09/29 14:10:47;;;;;;;2.78;2.58;;;11.40;99.90;;;;;;4930780;29;20139;-72
2022/09/29 14:13:20;;;;;;;2.38;2.17;;;11.30;99.90;;;;;;4931174;29;20055;-71
2022/09/29 14:16:03;;;;;;;3.00;2.60;;;11.30;99.90;;;;;;4930529;29;20139;-71
2022/09/29 14:18:38;;;;;;;3.47;3.17;;;11.20;99.90;;;;;;4943448;29;20150;-71